Time;durP1;ratioP1;P1;durP2;ratioP2;P2;SDS_P1;SDS_P2;PMS_P1;PMS_P2;Temp;Humidity;BMP_temperature;BMP_pressure;BME280_temperature;BME280_humidity;BME280_pressure;Samples;Min_cycle;Max_cycle;Signal;HPM_P1;HPM_P2
2022/07/19 00:04:18;;;;;;;3.75;1.60;;;21.10;99.90;;;;;;12534402;28;20100;-34
2022/07/19 00:10:20;;;;;;;3.85;1.42;;;20.90;99.90;;;;;;12543487;28;20420;-34
2022/07/19 00:16:22;;;;;;;3.60;1.75;;;20.80;99.90;;;;;;12533618;28;20163;-38
2022/07/19 00:22:24;;;;;;;2.83;1.55;;;20.70;99.90;;;;;;12556809;28;20040;-34
2022/07/19 00:28:26;;;;;;;3.90;1.63;;;20.70;99.90;;;;;;12556036;28;20093;-37
2022/07/19 00:34:28;;;;;;;5.30;1.98;;;20.60;99.90;;;;;;12548181;28;20048;-34
2022/07/19 00:40:29;;;;;;;5.03;1.80;;;20.60;99.90;;;;;;12539110;28;20090;-34
2022/07/19 00:46:31;;;;;;;4.30;2.00;;;20.50;99.90;;;;;;12535267;28;20611;-38
2022/07/19 00:52:33;;;;;;;4.50;2.22;;;20.40;99.90;;;;;;12540966;28;20052;-38
2022/07/19 00:58:37;;;;;;;4.18;1.90;;;20.30;99.90;;;;;;12515412;28;20520;-38
2022/07/19 01:04:39;;;;;;;3.42;1.65;;;20.30;99.90;;;;;;12531535;28;20037;-34
2022/07/19 01:10:41;;;;;;;4.95;2.10;;;20.20;99.90;;;;;;12544727;28;20053;-40
2022/07/19 01:16:44;;;;;;;3.60;1.90;;;20.10;99.90;;;;;;12536603;28;20045;-34
2022/07/19 01:22:47;;;;;;;3.63;2.00;;;20.10;99.90;;;;;;12537984;28;20045;-38
2022/07/19 01:28:49;;;;;;;3.38;1.92;;;20.10;99.90;;;;;;12528143;28;20048;-38
2022/07/19 01:34:50;;;;;;;3.38;1.77;;;19.90;99.90;;;;;;12522631;28;20083;-33
2022/07/19 01:40:52;;;;;;;3.78;2.20;;;19.80;99.90;;;;;;12544824;28;20471;-33
2022/07/19 01:46:54;;;;;;;5.07;1.98;;;19.80;99.90;;;;;;12522139;28;20133;-38
2022/07/19 01:52:56;;;;;;;4.50;2.30;;;19.70;99.90;;;;;;12543843;28;20068;-34
2022/07/19 01:58:58;;;;;;;6.00;2.15;;;19.70;99.90;;;;;;12538985;28;20098;-33
2022/07/19 02:05:00;;;;;;;6.18;2.10;;;19.70;99.90;;;;;;12535527;28;20133;-38
2022/07/19 02:11:34;;;;;;;6.65;2.22;;;19.60;99.90;;;;;;12534301;28;20508;-34
2022/07/19 02:17:24;;;;;;;4.35;2.28;;;19.50;99.90;;;;;;12536935;28;20472;-40
2022/07/19 02:23:26;;;;;;;4.22;2.05;;;19.40;99.90;;;;;;12544457;28;20068;-34
2022/07/19 02:29:28;;;;;;;6.65;2.42;;;19.30;99.90;;;;;;12548633;28;20119;-33
2022/07/19 02:35:30;;;;;;;4.30;2.30;;;19.20;99.90;;;;;;12518382;28;20128;-38
2022/07/19 02:41:40;;;;;;;4.70;2.22;;;19.10;99.90;;;;;;12533023;28;20056;-34
2022/07/19 02:47:43;;;;;;;4.13;2.40;;;19.00;99.90;;;;;;12520317;28;20422;-34
2022/07/19 02:53:44;;;;;;;6.53;2.53;;;19.00;99.90;;;;;;12527880;28;20056;-33
2022/07/19 02:59:46;;;;;;;3.65;1.80;;;18.90;99.90;;;;;;12531894;28;20045;-37
2022/07/19 03:05:48;;;;;;;4.25;2.40;;;18.80;99.90;;;;;;12539088;28;20488;-37
2022/07/19 03:11:51;;;;;;;7.57;2.50;;;18.80;99.90;;;;;;12537664;28;20044;-35
2022/07/19 03:17:53;;;;;;;4.38;2.05;;;18.70;99.90;;;;;;12531823;28;20072;-38
2022/07/19 03:23:55;;;;;;;3.85;2.17;;;18.60;99.90;;;;;;12542468;28;20045;-34
2022/07/19 03:29:57;;;;;;;8.73;2.13;;;18.60;99.90;;;;;;12532613;28;20715;-39
2022/07/19 03:35:59;;;;;;;4.45;2.00;;;18.50;99.90;;;;;;12537915;28;20041;-34
2022/07/19 03:42:01;;;;;;;5.10;2.22;;;18.40;99.90;;;;;;12535903;28;20378;-33
2022/07/19 03:48:03;;;;;;;5.85;2.42;;;18.30;99.90;;;;;;12513981;28;20475;-38
2022/07/19 03:54:04;;;;;;;5.47;2.28;;;18.20;99.90;;;;;;12509717;28;20052;-34
2022/07/19 04:00:07;;;;;;;4.88;2.13;;;18.20;99.90;;;;;;12524284;28;20083;-34
2022/07/19 04:06:10;;;;;;;3.05;1.80;;;18.20;99.90;;;;;;12491843;28;20049;-34
2022/07/19 04:12:12;;;;;;;4.40;1.88;;;18.20;99.90;;;;;;12519939;28;20053;-38
2022/07/19 04:18:14;;;;;;;3.30;2.00;;;18.20;99.90;;;;;;12511953;28;20051;-38
2022/07/19 04:24:16;;;;;;;7.13;2.03;;;18.10;99.90;;;;;;12529532;28;20802;-37
2022/07/19 04:30:18;;;;;;;4.80;1.98;;;18.20;99.90;;;;;;12515409;28;20049;-37
2022/07/19 04:36:20;;;;;;;4.10;1.80;;;18.20;99.90;;;;;;12514672;28;20041;-39
2022/07/19 04:42:22;;;;;;;8.40;1.92;;;18.20;99.90;;;;;;12523554;28;20072;-33
2022/07/19 04:48:24;;;;;;;5.30;1.70;;;18.10;99.90;;;;;;12538441;28;20119;-34
2022/07/19 04:54:26;;;;;;;6.65;2.03;;;18.20;99.90;;;;;;12532981;28;20123;-33
2022/07/19 05:00:28;;;;;;;2.92;1.80;;;18.30;99.90;;;;;;12536382;28;20517;-33
2022/07/19 05:06:30;;;;;;;5.30;2.15;;;18.40;99.90;;;;;;12539259;28;20519;-34
2022/07/19 05:12:32;;;;;;;3.88;1.90;;;18.40;99.90;;;;;;12545665;28;20390;-39
2022/07/19 05:18:34;;;;;;;5.00;1.95;;;18.50;99.90;;;;;;12545214;28;20144;-34
2022/07/19 05:24:36;;;;;;;3.65;2.25;;;18.60;99.90;;;;;;12544111;28;20045;-34
2022/07/19 05:30:39;;;;;;;4.88;2.28;;;18.70;99.90;;;;;;12546924;28;20048;-34
2022/07/19 05:36:41;;;;;;;7.93;2.90;;;18.70;99.90;;;;;;12534650;28;20048;-34
2022/07/19 05:42:43;;;;;;;5.57;2.60;;;18.70;99.90;;;;;;12532618;28;20053;-37
2022/07/19 05:48:45;;;;;;;6.20;2.67;;;18.80;99.90;;;;;;12531016;28;20053;-35
2022/07/19 05:54:47;;;;;;;9.52;3.60;;;18.90;99.90;;;;;;12529806;28;20110;-39
2022/07/19 06:07:09;;;;;;;6.20;2.55;;;19.10;99.90;;;;;;12506246;28;20375;-34
2022/07/19 06:13:11;;;;;;;4.03;2.55;;;19.20;99.90;;;;;;12532126;28;20049;-34
2022/07/19 06:19:13;;;;;;;6.75;3.03;;;19.20;99.90;;;;;;12527953;28;20493;-38
2022/07/19 06:25:15;;;;;;;5.72;2.60;;;19.40;99.90;;;;;;12526879;28;20183;-38
2022/07/19 06:31:17;;;;;;;4.80;2.67;;;19.60;99.90;;;;;;12526319;28;20049;-34
2022/07/19 06:37:19;;;;;;;4.55;2.47;;;19.70;99.90;;;;;;12532380;28;20382;-34
2022/07/19 06:43:20;;;;;;;4.63;2.25;;;19.90;99.90;;;;;;12528076;28;20041;-34
2022/07/19 06:49:23;;;;;;;5.03;2.00;;;20.10;99.90;;;;;;12538465;28;20068;-34
2022/07/19 06:55:25;;;;;;;5.50;2.10;;;20.30;99.90;;;;;;12530702;28;20048;-37
2022/07/19 07:01:28;;;;;;;5.40;2.30;;;20.50;99.90;;;;;;12533455;28;20044;-34
2022/07/19 07:07:30;;;;;;;5.32;2.20;;;20.70;99.90;;;;;;12538518;28;20049;-34
2022/07/19 07:13:35;;;;;;;7.20;2.30;;;20.90;99.90;;;;;;12524184;28;20499;-39
2022/07/19 07:19:37;;;;;;;6.68;2.28;;;21.10;99.90;;;;;;12514566;28;20080;-38
2022/07/19 07:25:39;;;;;;;6.85;2.10;;;21.40;99.90;;;;;;12535225;28;20553;-39
2022/07/19 07:31:41;;;;;;;5.63;2.05;;;21.70;99.90;;;;;;12521228;28;20053;-34
2022/07/19 07:37:42;;;;;;;10.27;2.15;;;21.90;99.90;;;;;;12535196;28;20045;-38
2022/07/19 07:43:44;;;;;;;4.53;2.00;;;22.00;99.90;;;;;;12536736;28;20064;-38
2022/07/19 07:49:46;;;;;;;5.47;1.92;;;22.20;99.90;;;;;;12520266;28;20492;-38
2022/07/19 07:55:48;;;;;;;6.32;2.20;;;22.50;99.90;;;;;;12511086;28;20109;-34
2022/07/19 08:01:50;;;;;;;5.53;2.00;;;22.90;99.90;;;;;;12494976;28;20677;-34
2022/07/19 08:08:00;;;;;;;10.40;1.98;;;23.10;99.90;;;;;;12487228;28;20105;-38
2022/07/19 08:14:02;;;;;;;6.13;2.25;;;23.30;99.90;;;;;;12495363;28;20045;-39
2022/07/19 08:20:04;;;;;;;6.65;1.90;;;23.70;99.90;;;;;;12479600;28;20041;-39
2022/07/19 08:26:06;;;;;;;7.00;2.00;;;23.90;99.90;;;;;;12499005;28;20107;-39
2022/07/19 08:32:09;;;;;;;6.80;1.80;;;24.20;99.90;;;;;;12482582;28;20554;-40
2022/07/19 08:38:11;;;;;;;9.15;2.30;;;24.30;99.90;;;;;;12483581;28;20309;-34
2022/07/19 08:44:13;;;;;;;9.70;2.20;;;24.60;99.90;;;;;;12526679;28;20106;-39
2022/07/19 08:50:15;;;;;;;8.50;2.17;;;25.00;99.90;;;;;;12534308;28;20049;-38
2022/07/19 09:02:58;;;;;;;5.25;2.00;;;25.70;99.90;;;;;;12537490;28;20469;-34
2022/07/19 09:09:03;;;;;;;5.22;2.20;;;25.90;99.90;;;;;;12532026;28;20912;-38
2022/07/19 09:15:06;;;;;;;4.57;1.73;;;26.20;99.90;;;;;;12534188;28;20049;-38
2022/07/19 09:21:08;;;;;;;8.35;1.75;;;27.30;99.90;;;;;;12544764;28;20439;-39
2022/07/19 09:27:15;;;;;;;9.30;1.57;;;27.70;99.90;;;;;;12533027;28;20106;-41
2022/07/19 09:33:19;;;;;;;5.20;1.70;;;28.20;99.90;;;;;;12535501;28;20079;-34
2022/07/19 09:39:28;;;;;;;5.20;1.60;;;29.00;99.90;;;;;;12537450;28;20408;-38
2022/07/19 09:45:32;;;;;;;6.78;1.92;;;29.30;99.90;;;;;;12510023;28;20162;-34
2022/07/19 09:51:37;;;;;;;7.93;1.80;;;29.80;99.90;;;;;;12508216;28;20301;-38
2022/07/19 09:57:42;;;;;;;4.40;1.60;;;30.40;99.90;;;;;;12508503;28;20161;-41
2022/07/19 10:03:44;;;;;;;4.28;1.70;;;30.20;99.90;;;;;;12499052;28;20054;-38
2022/07/19 10:09:53;;;;;;;5.40;1.50;;;30.30;99.90;;;;;;12495004;28;20501;-35
2022/07/19 10:15:57;;;;;;;5.00;1.52;;;31.00;99.90;;;;;;12494687;28;20045;-35
2022/07/19 10:22:11;;;;;;;5.97;1.88;;;31.10;99.90;;;;;;12506910;28;20140;-35
2022/07/19 10:28:36;;;;;;;3.42;1.20;;;31.20;99.90;;;;;;12490408;28;20049;-39
2022/07/19 10:35:21;;;;;;;2.33;1.15;;;31.30;99.90;;;;;;12499959;28;20408;-34
2022/07/19 10:41:26;;;;;;;4.03;1.38;;;31.70;98.70;;;;;;12505346;28;20106;-39
2022/07/19 10:47:39;;;;;;;4.22;1.05;;;32.20;95.70;;;;;;12530457;28;20132;-35
2022/07/19 10:53:41;;;;;;;4.40;1.27;;;32.40;93.00;;;;;;12536735;28;20128;-34
2022/07/19 10:59:43;;;;;;;5.20;1.30;;;32.70;92.30;;;;;;12527044;28;20496;-38
2022/07/19 11:06:06;;;;;;;4.88;1.70;;;32.80;93.60;;;;;;12531215;28;20045;-35
2022/07/19 11:12:40;;;;;;;9.23;1.30;;;32.80;93.10;;;;;;12532995;28;20128;-35
2022/07/19 11:18:43;;;;;;;5.80;1.20;;;32.80;90.40;;;;;;12493541;28;20412;-39
2022/07/19 11:24:45;;;;;;;4.55;1.17;;;33.40;92.80;;;;;;12542440;28;20076;-39
2022/07/19 11:30:47;;;;;;;3.95;1.00;;;33.60;87.10;;;;;;12537507;28;20048;-35
2022/07/19 11:36:58;;;;;;;2.15;0.95;;;33.50;89.40;;;;;;12537894;28;20434;-39
2022/07/19 11:43:07;;;;;;;7.20;1.20;;;33.30;84.20;;;;;;12513990;28;20052;-35
2022/07/19 11:49:19;;;;;;;2.35;0.80;;;33.50;86.50;;;;;;12510831;28;20050;-36
2022/07/19 11:55:23;;;;;;;4.85;1.00;;;33.90;79.00;;;;;;12512293;28;20052;-39
2022/07/19 12:01:26;;;;;;;3.13;0.95;;;34.00;78.20;;;;;;12493798;28;20128;-39
2022/07/19 12:07:28;;;;;;;3.65;0.90;;;34.00;77.50;;;;;;12510619;28;20053;-39
2022/07/19 12:13:35;;;;;;;6.45;1.00;;;33.80;77.50;;;;;;12503155;28;20521;-40
2022/07/19 12:19:38;;;;;;;4.13;1.20;;;34.10;68.20;;;;;;12510455;28;20091;-35
2022/07/19 12:25:47;;;;;;;3.25;1.55;;;33.90;75.10;;;;;;12510758;28;20052;-39
2022/07/19 12:31:50;;;;;;;5.30;1.50;;;34.30;78.00;;;;;;12505719;28;20049;-39
2022/07/19 12:38:03;;;;;;;8.85;1.42;;;34.20;81.00;;;;;;12496789;28;20253;-35
2022/07/19 12:44:05;;;;;;;2.75;1.52;;;34.10;73.20;;;;;;12516112;28;20049;-35
2022/07/19 12:50:08;;;;;;;3.63;1.55;;;35.00;69.60;;;;;;12537062;28;20052;-39
2022/07/19 12:56:13;;;;;;;4.43;1.60;;;35.40;69.50;;;;;;12511928;28;20045;-40
2022/07/19 13:02:17;;;;;;;5.55;2.00;;;34.90;68.90;;;;;;12533319;28;20102;-35
2022/07/19 13:08:19;;;;;;;4.20;1.63;;;35.00;69.10;;;;;;12532525;28;20139;-38
2022/07/19 13:14:23;;;;;;;5.35;1.70;;;35.10;71.90;;;;;;12533647;28;20041;-39
2022/07/19 13:20:25;;;;;;;8.60;2.17;;;35.50;64.60;;;;;;12527655;28;20127;-38
2022/07/19 13:26:27;;;;;;;5.55;1.98;;;35.70;69.40;;;;;;12529692;28;20460;-39
2022/07/19 13:32:29;;;;;;;4.43;2.17;;;35.80;64.20;;;;;;12541695;28;20064;-38
2022/07/19 13:38:31;;;;;;;6.47;1.92;;;35.70;69.20;;;;;;12541614;28;20048;-38
2022/07/19 13:44:33;;;;;;;4.80;1.70;;;35.80;62.60;;;;;;12538384;28;20052;-38
2022/07/19 13:50:38;;;;;;;3.10;1.60;;;35.70;63.30;;;;;;12534433;28;20041;-35
2022/07/19 13:56:40;;;;;;;5.35;1.90;;;35.70;60.20;;;;;;12534844;28;20071;-40
2022/07/19 14:02:42;;;;;;;6.43;2.08;;;35.90;62.90;;;;;;12539492;28;20068;-39
2022/07/19 14:08:44;;;;;;;5.22;1.75;;;35.70;65.90;;;;;;12541705;28;20079;-39
2022/07/19 14:14:46;;;;;;;6.05;1.80;;;35.30;62.60;;;;;;12537635;28;20098;-35
2022/07/19 14:20:48;;;;;;;6.72;1.98;;;35.20;68.70;;;;;;12526826;28;20045;-38
2022/07/19 14:26:50;;;;;;;5.43;1.65;;;35.00;63.50;;;;;;12533072;28;20101;-35
2022/07/19 14:32:52;;;;;;;8.10;2.03;;;35.20;60.30;;;;;;12530823;28;20530;-39
2022/07/19 14:38:54;;;;;;;5.63;2.05;;;35.40;65.20;;;;;;12535297;28;20135;-40
2022/07/19 14:44:57;;;;;;;3.85;1.73;;;35.20;64.60;;;;;;12534243;28;20071;-39
2022/07/19 14:50:59;;;;;;;4.97;1.63;;;35.20;71.90;;;;;;12548056;28;20189;-35
2022/07/19 14:57:01;;;;;;;4.45;1.50;;;35.40;60.00;;;;;;12538891;28;20098;-35
2022/07/19 15:03:03;;;;;;;3.65;1.50;;;35.10;61.60;;;;;;12533452;28;20501;-39
2022/07/19 15:09:05;;;;;;;6.63;1.67;;;34.90;58.70;;;;;;12534577;28;20118;-35
2022/07/19 15:15:08;;;;;;;6.38;1.60;;;35.10;62.20;;;;;;12515585;28;20164;-39
2022/07/19 15:21:10;;;;;;;6.22;1.40;;;35.00;62.10;;;;;;12526008;28;20078;-35
2022/07/19 15:27:12;;;;;;;4.53;1.50;;;34.70;58.90;;;;;;12539320;28;20052;-35
2022/07/19 15:33:14;;;;;;;3.50;1.30;;;34.60;57.50;;;;;;12540995;28;20190;-35
2022/07/19 15:39:16;;;;;;;3.10;1.45;;;34.70;57.10;;;;;;12535725;28;20048;-38
2022/07/19 15:45:20;;;;;;;2.70;1.30;;;34.50;59.10;;;;;;12529296;28;20065;-39
2022/07/19 15:51:22;;;;;;;3.42;1.35;;;35.00;55.40;;;;;;12532218;28;20053;-40
2022/07/19 15:57:24;;;;;;;4.47;1.45;;;35.10;58.60;;;;;;12527359;28;20524;-35
2022/07/19 16:03:25;;;;;;;4.60;1.35;;;35.30;54.50;;;;;;12524125;28;20134;-35
2022/07/19 16:09:27;;;;;;;3.53;1.38;;;35.00;54.80;;;;;;12498956;28;20402;-35
2022/07/19 16:15:33;;;;;;;6.03;1.60;;;35.30;55.90;;;;;;12534099;28;20427;-35
2022/07/19 16:21:35;;;;;;;2.90;1.50;;;35.40;55.30;;;;;;12509553;28;20085;-38
2022/07/19 16:27:37;;;;;;;7.80;1.67;;;35.50;55.70;;;;;;12524532;28;20098;-39
2022/07/19 16:33:40;;;;;;;2.45;1.38;;;35.40;59.30;;;;;;12527190;28;20037;-39
2022/07/19 16:39:42;;;;;;;4.38;1.50;;;34.90;57.50;;;;;;12530387;28;20060;-38
2022/07/19 16:45:45;;;;;;;4.30;1.73;;;34.90;59.80;;;;;;12529035;28;20044;-36
2022/07/19 16:51:47;;;;;;;4.88;1.92;;;34.70;61.00;;;;;;12537771;28;20090;-36
2022/07/19 16:57:56;;;;;;;3.70;1.45;;;34.80;58.70;;;;;;12525700;28;20045;-36
2022/07/19 17:03:58;;;;;;;3.75;1.50;;;35.00;59.10;;;;;;12526234;28;20158;-38
2022/07/19 17:10:00;;;;;;;6.53;2.20;;;35.00;60.70;;;;;;12538314;28;20056;-35
2022/07/19 17:16:23;;;;;;;4.63;1.98;;;35.00;60.40;;;;;;12541339;28;20082;-40
2022/07/19 17:22:25;;;;;;;5.43;2.70;;;35.00;63.70;;;;;;12545905;28;20045;-35
2022/07/19 17:28:26;;;;;;;7.68;3.00;;;35.00;64.50;;;;;;12531104;28;20540;-39
2022/07/19 17:34:28;;;;;;;5.57;2.05;;;34.90;60.20;;;;;;12522842;28;20090;-35
2022/07/19 17:40:32;;;;;;;3.58;1.38;;;34.80;63.80;;;;;;12543614;28;20041;-41
2022/07/19 17:46:34;;;;;;;5.32;1.60;;;34.90;64.40;;;;;;12545185;28;20080;-35
2022/07/19 17:52:37;;;;;;;3.17;1.50;;;35.10;65.70;;;;;;12547894;28;20052;-39
2022/07/19 17:58:40;;;;;;;4.80;1.73;;;35.30;66.90;;;;;;12540286;28;20120;-35
2022/07/19 18:04:42;;;;;;;4.63;2.90;;;35.60;67.60;;;;;;12541593;28;20071;-40
2022/07/19 18:10:43;;;;;;;8.02;2.58;;;35.80;68.60;;;;;;12524007;28;20135;-35
2022/07/19 18:16:45;;;;;;;11.32;3.90;;;35.10;64.00;;;;;;12530351;28;20377;-35
2022/07/19 18:23:07;;;;;;;10.75;6.93;;;34.30;68.40;;;;;;12542266;28;20056;-39
2022/07/19 18:29:09;;;;;;;7.47;2.25;;;33.50;65.30;;;;;;12542102;28;20114;-39
2022/07/19 18:35:13;;;;;;;10.60;2.38;;;33.00;68.00;;;;;;12534671;28;20045;-38
2022/07/19 18:41:14;;;;;;;6.40;1.70;;;32.70;71.90;;;;;;12534462;28;20515;-38
2022/07/19 18:47:17;;;;;;;5.93;2.13;;;32.60;77.00;;;;;;12539379;28;20107;-34
2022/07/19 18:53:19;;;;;;;5.18;1.85;;;32.30;74.20;;;;;;12539509;28;20658;-35
2022/07/19 18:59:21;;;;;;;6.95;2.00;;;31.80;74.10;;;;;;12547042;28;20045;-38
2022/07/19 19:05:23;;;;;;;4.32;2.13;;;31.50;77.20;;;;;;12533536;28;20457;-38
2022/07/19 19:11:24;;;;;;;;;;;31.50;78.30;;;;;;12529160;28;20147;-35
2022/07/19 19:17:27;;;;;;;5.77;1.97;;;31.50;82.40;;;;;;12527026;28;19981;-34
2022/07/19 19:23:29;;;;;;;5.90;2.00;;;31.30;84.70;;;;;;12513738;28;20046;-34
2022/07/19 19:29:31;;;;;;;6.35;2.28;;;31.00;83.90;;;;;;12520397;28;20107;-38
2022/07/19 19:35:33;;;;;;;8.73;2.88;;;30.40;77.70;;;;;;12529495;28;20171;-35
2022/07/19 19:41:35;;;;;;;6.65;2.80;;;30.00;75.80;;;;;;12526124;28;20049;-38
2022/07/19 19:47:37;;;;;;;9.13;3.00;;;29.80;74.80;;;;;;12538479;28;20048;-34
2022/07/19 19:53:40;;;;;;;4.45;2.42;;;29.70;74.80;;;;;;12541950;28;20068;-34
2022/07/19 19:59:42;;;;;;;8.93;2.53;;;29.70;73.80;;;;;;12525733;28;20167;-34
2022/07/19 20:05:43;;;;;;;8.40;4.88;;;29.60;73.30;;;;;;12523699;28;20037;-38
2022/07/19 20:11:45;;;;;;;4.93;3.00;;;29.50;74.70;;;;;;12533912;28;20476;-34
2022/07/19 20:17:47;;;;;;;8.57;2.88;;;29.40;73.10;;;;;;12521378;28;20051;-38
2022/07/19 20:23:49;;;;;;;6.60;2.80;;;29.30;72.40;;;;;;12526901;28;20041;-34
2022/07/19 20:29:51;;;;;;;5.05;2.67;;;29.20;72.60;;;;;;12531127;28;20045;-34
2022/07/19 20:35:53;;;;;;;5.57;2.30;;;29.10;71.40;;;;;;12520974;28;20559;-38
2022/07/19 20:41:54;;;;;;;7.43;2.40;;;29.00;74.80;;;;;;12539553;28;20037;-39
2022/07/19 20:47:57;;;;;;;7.00;2.60;;;29.00;72.00;;;;;;12533138;28;20079;-34
2022/07/19 20:53:59;;;;;;;6.75;2.60;;;29.00;73.60;;;;;;12536384;28;20697;-38
2022/07/19 21:00:01;;;;;;;6.40;2.20;;;28.90;74.10;;;;;;12542170;28;20033;-34
2022/07/19 21:06:03;;;;;;;7.55;3.05;;;28.80;73.10;;;;;;12540956;28;20134;-40
2022/07/19 21:12:05;;;;;;;5.63;2.55;;;28.70;75.30;;;;;;12543178;28;20084;-38
2022/07/19 21:18:07;;;;;;;;;;;28.60;72.30;;;;;;12526246;28;20183;-34
2022/07/19 21:24:09;;;;;;;4.43;2.30;;;28.50;74.60;;;;;;12536792;28;19924;-34
2022/07/19 21:30:11;;;;;;;8.73;3.80;;;28.40;72.60;;;;;;12527796;28;20136;-39
2022/07/19 21:36:13;;;;;;;20.20;3.38;;;28.30;73.80;;;;;;12526448;28;20053;-38
2022/07/19 21:42:14;;;;;;;15.67;4.80;;;28.20;73.50;;;;;;12542436;28;20086;-34
2022/07/19 21:48:17;;;;;;;4.73;1.83;;;28.20;74.80;;;;;;12537145;28;20059;-39
2022/07/19 21:54:18;;;;;;;5.60;1.85;;;28.30;78.00;;;;;;12535697;28;20041;-38
2022/07/19 22:00:20;;;;;;;6.23;2.20;;;28.40;82.00;;;;;;12535460;28;20137;-39
2022/07/19 22:06:22;;;;;;;5.27;1.90;;;28.30;80.70;;;;;;12526879;28;20061;-34
2022/07/19 22:12:24;;;;;;;8.20;2.10;;;27.80;74.70;;;;;;12526069;28;20103;-38
2022/07/19 22:18:27;;;;;;;6.15;2.22;;;27.50;76.00;;;;;;12516173;28;20079;-39
2022/07/19 22:24:29;;;;;;;6.35;2.00;;;27.30;77.70;;;;;;12527678;28;20492;-39
2022/07/19 22:30:32;;;;;;;6.13;1.93;;;27.20;78.20;;;;;;12535608;28;20536;-38
2022/07/19 22:36:34;;;;;;;5.82;1.98;;;27.00;78.20;;;;;;12522783;28;20132;-34
2022/07/19 22:42:36;;;;;;;4.75;1.80;;;26.90;79.10;;;;;;12518721;28;20378;-38
2022/07/19 22:48:38;;;;;;;7.00;2.00;;;26.90;78.90;;;;;;12530610;28;20472;-34
2022/07/19 22:54:40;;;;;;;8.70;1.95;;;26.80;79.20;;;;;;12537981;28;20063;-34
2022/07/19 23:00:42;;;;;;;5.80;1.90;;;26.90;78.20;;;;;;12531928;28;20042;-34
2022/07/19 23:06:43;;;;;;;5.03;1.90;;;27.10;77.70;;;;;;12538228;28;20498;-38
2022/07/19 23:12:45;;;;;;;5.67;2.00;;;27.30;81.10;;;;;;12531802;28;20041;-34
2022/07/19 23:18:47;;;;;;;4.87;1.70;;;27.40;79.10;;;;;;12530261;28;20046;-34
2022/07/19 23:24:50;;;;;;;6.85;2.22;;;27.60;79.20;;;;;;12511999;28;20175;-38
2022/07/19 23:30:52;;;;;;;5.47;1.80;;;27.70;81.20;;;;;;12534897;28;20049;-38
2022/07/19 23:36:54;;;;;;;5.93;1.90;;;27.60;78.70;;;;;;12538405;28;20767;-38
2022/07/19 23:42:56;;;;;;;6.70;2.00;;;27.60;74.70;;;;;;12534165;28;20094;-34
2022/07/19 23:48:58;;;;;;;6.97;1.90;;;27.80;73.70;;;;;;12529343;28;20128;-39
2022/07/19 23:55:00;;;;;;;6.03;1.73;;;28.10;73.30;;;;;;12526077;28;20171;-38
